Terminal Aerodrome Forecast
Issued by NWS

Home | Current Version | Previous Version | Graphics & Text | Print | Product List | Glossary On
Versions: 1 2 3 4 5 6 7 8 9 10 11 12 13 14 15 16 17 18 19 20 21 22 23 24 25 26 27 28 29 30 31 32 33 34 35
111
FTUS43 KLOT 280823 AAA
TAFMDW
TAF AMD
KMDW 280823Z 2808/2906 01011KT P6SM OVC040
     FM281000 02008KT P6SM SCT009 OVC015
     FM281200 01010KT 6SM BR OVC009
     FM281600 02011KT P6SM OVC012
     FM282000 03011KT P6SM BKN020
     FM290000 03006KT P6SM FEW025 SCT035 BKN200=

USA.gov is the U.S. government's official web portal to all federal, state and local government web resources and services.